createdAt,value
2022-08-01T00:01:56.986Z,23.68
2022-08-01T00:04:23.473Z,23.69
2022-08-01T00:06:49.941Z,23.67
2022-08-01T00:09:24.073Z,23.63
2022-08-01T00:11:59.509Z,23.63
2022-08-01T00:14:32.582Z,23.59
2022-08-01T00:17:02.601Z,23.60
2022-08-01T00:19:32.005Z,23.57
2022-08-01T00:21:58.507Z,23.57
2022-08-01T00:24:25.085Z,23.55
2022-08-01T00:26:51.559Z,23.55
2022-08-01T00:30:09.667Z,23.55
2022-08-01T00:32:05.211Z,23.52
2022-08-01T00:34:31.804Z,23.54
2022-08-01T00:36:58.239Z,23.55
2022-08-01T00:39:24.692Z,23.53
2022-08-01T00:41:59.645Z,23.53
2022-08-01T00:44:27.417Z,23.54
2022-08-01T00:46:54.011Z,23.54
2022-08-01T00:49:20.591Z,23.54
2022-08-01T00:51:47.239Z,23.53
2022-08-01T00:54:16.796Z,23.51
2022-08-01T00:56:43.877Z,23.52
2022-08-01T00:59:12.578Z,23.53
2022-08-01T01:01:41.110Z,23.55
2022-08-01T01:04:13.871Z,23.55
2022-08-01T01:07:07.136Z,23.57
2022-08-01T01:09:58.745Z,23.56
2022-08-01T01:12:52.540Z,23.57
2022-08-01T01:15:37.163Z,23.55
2022-08-01T01:18:23.227Z,23.50
2022-08-01T01:21:02.123Z,23.45
2022-08-01T01:23:48.748Z,23.41
2022-08-01T01:26:29.791Z,23.42
2022-08-01T01:29:11.375Z,23.38
2022-08-01T01:32:09.559Z,23.31
2022-08-01T01:34:40.191Z,23.23
2022-08-01T01:37:11.875Z,23.24
2022-08-01T01:39:41.607Z,23.20
2022-08-01T01:42:11.984Z,23.18
2022-08-01T01:44:40.801Z,23.16
2022-08-01T01:47:07.591Z,23.09
2022-08-01T01:49:35.143Z,23.06
2022-08-01T01:52:04.498Z,23.05
2022-08-01T01:54:37.057Z,23.05
2022-08-01T01:57:05.140Z,23.06
2022-08-01T01:59:34.161Z,23.05
2022-08-01T02:02:05.979Z,23.04
2022-08-01T02:04:35.831Z,23.03
2022-08-01T02:07:03.668Z,23.01
2022-08-01T02:09:32.054Z,23.01
2022-08-01T02:12:09.289Z,23.01
2022-08-01T02:14:36.743Z,23.01
2022-08-01T02:17:05.120Z,23.02
2022-08-01T02:19:33.332Z,22.99
2022-08-01T02:22:21.292Z,22.98
2022-08-01T02:24:55.839Z,22.97
2022-08-01T02:27:29.561Z,22.94
2022-08-01T02:30:23.366Z,22.91
2022-08-01T02:33:01.585Z,22.93
2022-08-01T02:35:30.233Z,22.89
2022-08-01T02:37:58.807Z,22.86
2022-08-01T02:40:29.143Z,22.85
2022-08-01T02:42:57.909Z,22.85
2022-08-01T02:45:26.703Z,22.80
2022-08-01T02:47:57.117Z,22.78
2022-08-01T02:50:26.820Z,22.77
2022-08-01T02:52:55.137Z,22.75
2022-08-01T02:55:23.575Z,22.70
2022-08-01T02:57:56.750Z,22.69
2022-08-01T03:00:28.044Z,22.67
2022-08-01T03:02:56.112Z,22.63
2022-08-01T03:05:24.931Z,22.61
2022-08-01T03:07:54.072Z,22.63
2022-08-01T03:10:21.526Z,22.64
2022-08-01T03:12:50.893Z,22.63
2022-08-01T03:15:18.648Z,22.63
2022-08-01T03:17:47.947Z,22.61
2022-08-01T03:20:17.502Z,22.59
2022-08-01T03:22:45.950Z,22.59
2022-08-01T03:25:15.108Z,22.55
2022-08-01T03:27:44.242Z,22.53
2022-08-01T03:30:11.789Z,22.51
2022-08-01T03:32:38.433Z,22.52
2022-08-01T03:35:05.508Z,22.53
2022-08-01T03:38:00.325Z,22.54
2022-08-01T03:40:38.078Z,22.49
2022-08-01T03:43:08.196Z,22.49
2022-08-01T03:45:41.310Z,22.52
2022-08-01T03:48:14.257Z,22.54
2022-08-01T03:50:43.645Z,22.55
2022-08-01T03:53:11.775Z,22.54
2022-08-01T03:55:42.055Z,22.53
2022-08-01T03:58:10.647Z,22.49
2022-08-01T04:00:40.689Z,22.47
2022-08-01T04:03:08.821Z,22.44
2022-08-01T04:05:36.366Z,22.42
2022-08-01T04:08:03.720Z,22.40
2022-08-01T04:10:30.850Z,22.38
2022-08-01T04:12:57.443Z,22.38
2022-08-01T04:15:24.784Z,22.39
2022-08-01T04:17:51.232Z,22.40
2022-08-01T04:20:18.522Z,22.39
2022-08-01T04:22:45.009Z,22.40
2022-08-01T04:25:22.570Z,22.40
2022-08-01T04:27:52.470Z,22.35
2022-08-01T04:30:23.555Z,22.39
2022-08-01T04:32:51.632Z,22.38
2022-08-01T04:35:23.549Z,22.39
2022-08-01T04:38:10.476Z,22.39
2022-08-01T04:40:38.224Z,22.41
2022-08-01T04:43:04.798Z,22.44
2022-08-01T04:45:33.579Z,22.43
2022-08-01T04:48:00.843Z,22.46
2022-08-01T04:50:28.356Z,22.46
2022-08-01T04:52:54.815Z,22.44
2022-08-01T04:55:21.268Z,22.41
2022-08-01T04:57:49.012Z,22.42
2022-08-01T05:00:17.477Z,22.42
2022-08-01T05:02:44.289Z,22.45
2022-08-01T05:05:11.453Z,22.48
2022-08-01T05:07:45.143Z,22.49
2022-08-01T05:10:13.040Z,22.49
2022-08-01T05:12:39.587Z,22.51
2022-08-01T05:15:11.685Z,22.56
2022-08-01T05:17:43.136Z,22.57
2022-08-01T05:20:10.352Z,22.60
2022-08-01T05:22:36.783Z,22.61
2022-08-01T05:25:05.845Z,22.65
2022-08-01T05:27:33.460Z,22.68
2022-08-01T05:30:00.361Z,22.72
2022-08-01T05:32:26.943Z,22.78
2022-08-01T05:34:53.657Z,22.81
2022-08-01T05:37:20.223Z,22.84
2022-08-01T05:39:46.633Z,22.87
2022-08-01T05:42:13.044Z,22.92
2022-08-01T05:44:39.467Z,22.90
2022-08-01T05:47:06.019Z,22.87
2022-08-01T05:49:32.535Z,22.88
2022-08-01T05:51:59.091Z,22.90
2022-08-01T05:54:25.809Z,22.90
2022-08-01T05:56:52.183Z,22.89
2022-08-01T05:59:18.826Z,22.93
2022-08-01T06:01:45.385Z,22.96
2022-08-01T06:04:11.842Z,22.99
2022-08-01T06:06:38.287Z,23.00
2022-08-01T06:09:04.764Z,23.02
2022-08-01T06:11:31.143Z,23.01
2022-08-01T06:13:57.589Z,22.96
2022-08-01T06:16:24.295Z,22.95
2022-08-01T06:18:54.950Z,22.92
2022-08-01T06:21:23.088Z,22.91
2022-08-01T06:23:49.665Z,22.89
2022-08-01T06:26:20.989Z,22.86
2022-08-01T06:28:47.791Z,22.85
2022-08-01T06:31:15.663Z,22.89
2022-08-01T06:33:42.231Z,22.95
2022-08-01T06:36:08.668Z,23.03
2022-08-01T06:38:35.107Z,23.09
2022-08-01T06:41:01.626Z,23.13
2022-08-01T06:43:28.073Z,23.15
2022-08-01T06:45:54.616Z,23.18
2022-08-01T06:48:21.045Z,23.23
2022-08-01T06:50:47.476Z,23.24
2022-08-01T06:53:13.871Z,23.23
2022-08-01T06:55:40.374Z,23.21
2022-08-01T06:58:06.820Z,23.20
2022-08-01T07:00:33.341Z,23.22
2022-08-01T07:03:00.980Z,23.22
2022-08-01T07:05:28.301Z,23.29
2022-08-01T07:07:55.034Z,23.36
2022-08-01T07:10:21.659Z,23.42
2022-08-01T07:12:48.108Z,23.46
2022-08-01T07:15:15.230Z,23.53
2022-08-01T07:17:43.301Z,23.60
2022-08-01T07:20:16.296Z,23.63
2022-08-01T07:22:43.567Z,23.65
2022-08-01T07:25:14.106Z,23.62
2022-08-01T07:27:40.553Z,23.65
2022-08-01T07:30:07.716Z,23.68
2022-08-01T07:32:35.777Z,23.71
2022-08-01T07:35:03.576Z,23.73
2022-08-01T07:37:48.044Z,23.81
2022-08-01T07:40:18.857Z,23.87
2022-08-01T07:42:45.974Z,23.94
2022-08-01T07:45:13.192Z,24.00
2022-08-01T07:47:39.633Z,24.01
2022-08-01T07:50:08.149Z,24.05
2022-08-01T07:52:34.696Z,24.10
2022-08-01T07:55:01.164Z,24.08
2022-08-01T07:57:27.715Z,24.08
2022-08-01T07:59:54.158Z,24.10
2022-08-01T08:02:20.662Z,24.11
2022-08-01T08:04:49.204Z,24.16
2022-08-01T08:07:16.032Z,24.24
2022-08-01T08:09:42.480Z,24.32
2022-08-01T08:12:09.301Z,24.41
2022-08-01T08:14:36.163Z,24.50
2022-08-01T08:17:03.194Z,24.53
2022-08-01T08:19:38.482Z,24.57
2022-08-01T08:22:05.600Z,24.63
2022-08-01T08:24:32.243Z,24.71
2022-08-01T08:27:00.165Z,24.84
2022-08-01T08:29:28.283Z,24.97
2022-08-01T08:31:55.803Z,25.04
2022-08-01T08:34:24.336Z,25.16
2022-08-01T08:36:51.018Z,25.25
2022-08-01T08:39:19.741Z,25.38
2022-08-01T08:41:49.127Z,25.46
2022-08-01T08:44:17.126Z,25.48
2022-08-01T08:46:48.778Z,25.53
2022-08-01T08:49:22.254Z,25.53
2022-08-01T08:51:51.169Z,25.65
2022-08-01T08:54:21.635Z,25.61
2022-08-01T08:56:48.812Z,25.62
2022-08-01T08:59:15.651Z,25.60
2022-08-01T09:01:43.318Z,25.58
2022-08-01T09:04:09.882Z,25.65
2022-08-01T09:06:36.727Z,25.57
2022-08-01T09:09:04.027Z,25.43
2022-08-01T09:11:30.587Z,25.40
2022-08-01T09:14:12.153Z,25.22
2022-08-01T09:16:48.318Z,25.13
2022-08-01T09:19:40.208Z,25.05
2022-08-01T09:22:08.706Z,25.05
2022-08-01T09:24:36.247Z,25.02
2022-08-01T09:27:17.863Z,25.06
2022-08-01T09:29:49.668Z,25.07
2022-08-01T09:32:28.490Z,25.10
2022-08-01T09:34:57.919Z,25.16
2022-08-01T09:37:37.517Z,25.28
2022-08-01T09:40:04.574Z,25.33
2022-08-01T09:42:31.035Z,25.51
2022-08-01T09:44:57.476Z,25.62
2022-08-01T09:47:38.742Z,25.73
2022-08-01T09:50:10.704Z,25.87
2022-08-01T09:52:37.822Z,25.93
2022-08-01T09:55:08.533Z,26.04
2022-08-01T09:57:35.154Z,26.03
2022-08-01T10:00:02.997Z,26.20
2022-08-01T10:02:38.572Z,26.37
2022-08-01T10:05:08.837Z,26.63
2022-08-01T10:07:55.381Z,26.79
2022-08-01T10:10:27.135Z,26.68
2022-08-01T10:12:57.858Z,26.73
2022-08-01T10:15:37.416Z,26.85
2022-08-01T10:18:16.126Z,26.97
2022-08-01T10:20:48.691Z,27.08
2022-08-01T10:23:16.415Z,27.10
2022-08-01T10:25:46.928Z,26.76
2022-08-01T10:28:23.893Z,26.62
2022-08-01T10:30:52.345Z,26.37
2022-08-01T10:33:51.365Z,26.27
2022-08-01T10:36:10.650Z,26.26
2022-08-01T10:38:37.521Z,26.25
2022-08-01T10:41:06.277Z,26.20
2022-08-01T10:43:33.558Z,26.22
2022-08-01T10:46:03.242Z,26.21
2022-08-01T10:48:47.080Z,26.21
2022-08-01T10:51:18.117Z,26.26
2022-08-01T10:53:54.126Z,26.32
2022-08-01T10:56:26.846Z,26.33
2022-08-01T10:59:06.220Z,26.41
2022-08-01T11:01:38.436Z,26.55
2022-08-01T11:04:16.636Z,26.70
2022-08-01T11:07:02.985Z,26.82
2022-08-01T11:09:38.592Z,26.99
2022-08-01T11:12:38.279Z,27.04
2022-08-01T11:15:05.559Z,27.10
2022-08-01T11:17:37.654Z,27.06
2022-08-01T11:20:15.023Z,27.02
2022-08-01T11:23:05.126Z,26.95
2022-08-01T11:26:03.414Z,26.88
2022-08-01T11:28:34.750Z,26.83
2022-08-01T11:31:26.710Z,26.80
2022-08-01T11:33:55.072Z,26.78
2022-08-01T11:36:42.798Z,26.83
2022-08-01T11:39:13.133Z,26.93
2022-08-01T11:41:41.508Z,26.85
2022-08-01T11:44:17.391Z,27.03
2022-08-01T11:46:51.151Z,27.16
2022-08-01T11:49:35.204Z,27.22
2022-08-01T11:52:25.861Z,27.22
2022-08-01T11:54:57.849Z,27.21
2022-08-01T11:57:35.652Z,27.16
2022-08-01T12:00:08.648Z,27.20
2022-08-01T12:02:35.703Z,27.19
2022-08-01T12:05:11.669Z,27.24
2022-08-01T12:07:40.099Z,27.23
2022-08-01T12:10:12.134Z,27.30
2022-08-01T12:12:44.606Z,27.32
2022-08-01T12:15:11.694Z,27.50
2022-08-01T12:17:40.430Z,27.59
2022-08-01T12:20:15.726Z,27.66
2022-08-01T12:22:42.615Z,27.69
2022-08-01T12:25:12.769Z,27.76
2022-08-01T12:27:41.253Z,27.80
2022-08-01T12:30:12.289Z,27.75
2022-08-01T12:32:41.110Z,27.69
2022-08-01T12:35:17.855Z,27.58
2022-08-01T12:37:47.077Z,27.48
2022-08-01T12:40:21.976Z,27.44
2022-08-01T12:42:50.676Z,27.37
2022-08-01T12:45:26.078Z,27.38
2022-08-01T12:47:54.568Z,27.39
2022-08-01T12:50:24.849Z,27.38
2022-08-01T12:52:51.982Z,27.33
2022-08-01T12:55:34.324Z,27.31
2022-08-01T12:58:15.455Z,27.40
2022-08-01T13:00:45.135Z,27.49
2022-08-01T13:03:19.537Z,27.69
2022-08-01T13:05:57.465Z,27.84
2022-08-01T13:08:29.793Z,28.25
2022-08-01T13:11:09.668Z,28.44
2022-08-01T13:13:48.556Z,28.62
2022-08-01T13:16:30.442Z,28.92
2022-08-01T13:19:05.735Z,29.11
2022-08-01T13:21:53.161Z,28.88
2022-08-01T13:24:27.469Z,28.68
2022-08-01T13:27:01.945Z,28.51
2022-08-01T13:29:45.789Z,28.27
2022-08-01T13:32:28.421Z,28.12
2022-08-01T13:35:11.156Z,27.95
2022-08-01T13:37:39.347Z,27.81
2022-08-01T13:40:07.920Z,27.61
2022-08-01T13:42:34.858Z,27.42
2022-08-01T13:45:01.576Z,27.25
2022-08-01T13:47:31.941Z,27.20
2022-08-01T13:50:02.964Z,27.05
2022-08-01T13:52:30.132Z,26.94
2022-08-01T13:54:56.565Z,26.87
2022-08-01T13:57:23.073Z,26.80
2022-08-01T13:59:49.809Z,26.77
2022-08-01T14:02:16.261Z,26.76
2022-08-01T14:04:43.190Z,26.72
2022-08-01T14:07:14.421Z,26.72
2022-08-01T14:09:45.162Z,26.69
2022-08-01T14:12:28.461Z,26.62
2022-08-01T14:14:54.928Z,26.63
2022-08-01T14:17:21.379Z,26.69
2022-08-01T14:19:48.413Z,26.72
2022-08-01T14:22:14.837Z,26.61
2022-08-01T14:24:41.292Z,26.59
2022-08-01T14:27:08.225Z,26.53
2022-08-01T14:30:04.362Z,26.52
2022-08-01T14:32:24.411Z,26.44
2022-08-01T14:34:55.718Z,26.40
2022-08-01T14:37:22.321Z,26.36
2022-08-01T14:39:55.925Z,26.32
2022-08-01T14:42:22.380Z,26.35
2022-08-01T14:44:49.827Z,26.40
2022-08-01T14:47:21.959Z,26.43
2022-08-01T14:49:49.407Z,26.40
2022-08-01T14:52:15.913Z,26.43
2022-08-01T14:54:42.348Z,26.55
2022-08-01T14:57:09.313Z,26.67
2022-08-01T14:59:36.029Z,26.88
2022-08-01T15:02:02.547Z,27.10
2022-08-01T15:04:29.055Z,27.36
2022-08-01T15:06:55.679Z,27.52
2022-08-01T15:09:22.071Z,27.64
2022-08-01T15:11:48.618Z,27.69
2022-08-01T15:14:33.743Z,27.71
2022-08-01T15:17:00.156Z,27.72
2022-08-01T15:19:26.641Z,27.75
2022-08-01T15:21:53.182Z,27.74
2022-08-01T15:24:19.599Z,27.74
2022-08-01T15:26:46.122Z,27.79
2022-08-01T15:29:14.381Z,27.86
2022-08-01T15:31:40.779Z,27.82
2022-08-01T15:34:07.326Z,27.82
2022-08-01T15:36:33.747Z,28.04
2022-08-01T15:39:00.340Z,28.36
2022-08-01T15:41:26.804Z,28.56
2022-08-01T15:43:55.935Z,28.67
2022-08-01T15:46:23.047Z,28.71
2022-08-01T15:48:49.534Z,28.95
2022-08-01T15:51:16.325Z,29.08
2022-08-01T15:53:43.533Z,29.06
2022-08-01T15:56:09.940Z,28.86
2022-08-01T15:58:36.481Z,28.71
2022-08-01T16:01:03.286Z,28.49
2022-08-01T16:03:29.783Z,28.28
2022-08-01T16:05:56.364Z,28.15
2022-08-01T16:08:23.339Z,27.96
2022-08-01T16:10:49.833Z,27.75
2022-08-01T16:13:16.763Z,27.65
2022-08-01T16:15:43.182Z,27.50
2022-08-01T16:18:12.970Z,27.44
2022-08-01T16:20:45.589Z,27.43
2022-08-01T16:23:12.925Z,27.44
2022-08-01T16:25:39.493Z,27.42
2022-08-01T16:28:06.240Z,27.40
2022-08-01T16:30:32.725Z,27.40
2022-08-01T16:33:07.947Z,27.35
2022-08-01T16:35:45.836Z,27.31
2022-08-01T16:38:19.285Z,27.34
2022-08-01T16:40:50.711Z,27.35
2022-08-01T16:43:19.426Z,27.41
2022-08-01T16:45:46.579Z,27.47
2022-08-01T16:48:15.783Z,27.52
2022-08-01T16:50:43.338Z,27.60
2022-08-01T16:53:11.281Z,27.64
2022-08-01T16:55:49.205Z,27.62
2022-08-01T16:58:19.341Z,27.63
2022-08-01T17:00:56.331Z,27.68
2022-08-01T17:03:51.332Z,27.72
2022-08-01T17:06:11.912Z,27.83
2022-08-01T17:08:46.142Z,27.90
2022-08-01T17:11:13.234Z,27.93
2022-08-01T17:13:39.682Z,27.98
2022-08-01T17:16:07.831Z,27.96
2022-08-01T17:18:34.715Z,27.82
2022-08-01T17:21:01.166Z,27.70
2022-08-01T17:23:27.668Z,27.64
2022-08-01T17:25:54.092Z,27.60
2022-08-01T17:28:22.984Z,27.55
2022-08-01T17:30:49.591Z,27.46
2022-08-01T17:33:16.036Z,27.43
2022-08-01T17:35:42.529Z,27.32
2022-08-01T17:38:08.959Z,27.27
2022-08-01T17:40:40.598Z,27.22
2022-08-01T17:43:07.681Z,27.17
2022-08-01T17:45:38.055Z,27.08
2022-08-01T17:48:16.442Z,27.06
2022-08-01T17:50:44.700Z,27.00
2022-08-01T17:53:11.602Z,26.97
2022-08-01T17:55:56.151Z,26.95
2022-08-01T17:58:49.173Z,26.92
2022-08-01T18:01:13.197Z,26.87
2022-08-01T18:03:41.295Z,26.84
2022-08-01T18:06:13.712Z,26.84
2022-08-01T18:08:41.874Z,26.82
2022-08-01T18:11:09.282Z,26.81
2022-08-01T18:13:36.106Z,26.83
2022-08-01T18:16:06.264Z,26.82
2022-08-01T18:18:34.213Z,26.81
2022-08-01T18:21:01.816Z,26.79
2022-08-01T18:23:28.337Z,26.72
2022-08-01T18:25:54.776Z,26.61
2022-08-01T18:28:31.603Z,26.50
2022-08-01T18:31:00.845Z,26.41
2022-08-01T18:33:27.648Z,26.32
2022-08-01T18:35:54.411Z,26.30
2022-08-01T18:38:22.651Z,26.24
2022-08-01T18:40:52.571Z,26.17
2022-08-01T18:43:19.262Z,26.10
2022-08-01T18:45:45.709Z,26.06
2022-08-01T18:48:12.188Z,26.01
2022-08-01T18:50:39.559Z,25.95
2022-08-01T18:53:06.528Z,25.89
2022-08-01T18:55:32.956Z,25.82
2022-08-01T18:57:59.404Z,25.77
2022-08-01T19:00:25.883Z,25.70
2022-08-01T19:02:53.083Z,25.64
2022-08-01T19:05:19.752Z,25.55
2022-08-01T19:08:06.989Z,25.46
2022-08-01T19:10:32.726Z,25.38
2022-08-01T19:13:00.277Z,25.31
2022-08-01T19:15:26.780Z,25.25
2022-08-01T19:17:53.216Z,25.16
2022-08-01T19:20:19.755Z,25.08
2022-08-01T19:22:46.191Z,24.99
2022-08-01T19:25:15.200Z,24.91
2022-08-01T19:27:46.716Z,24.79
2022-08-01T19:30:13.845Z,24.65
2022-08-01T19:32:42.540Z,24.53
2022-08-01T19:35:13.975Z,24.40
2022-08-01T19:37:45.715Z,24.28
2022-08-01T19:40:27.266Z,24.17
2022-08-01T19:42:56.335Z,24.02
2022-08-01T19:45:23.264Z,23.92
2022-08-01T19:47:57.302Z,23.82
2022-08-01T19:50:28.908Z,23.68
2022-08-01T19:52:57.494Z,23.56
2022-08-01T19:55:24.820Z,23.45
2022-08-01T20:00:40.440Z,23.23
2022-08-01T20:03:09.076Z,23.13
2022-08-01T20:05:37.093Z,23.05
2022-08-01T20:08:03.692Z,22.97
2022-08-01T20:10:32.137Z,22.89
2022-08-01T20:12:58.693Z,22.80
2022-08-01T20:15:25.758Z,22.72
2022-08-01T20:17:52.266Z,22.64
2022-08-01T20:20:18.712Z,22.54
2022-08-01T20:22:47.679Z,22.49
2022-08-01T20:25:15.146Z,22.41
2022-08-01T20:27:44.464Z,22.33
2022-08-01T20:30:12.038Z,22.25
2022-08-01T20:32:40.263Z,22.19
2022-08-01T20:35:07.675Z,22.10
2022-08-01T20:38:06.840Z,22.04
2022-08-01T20:40:26.726Z,21.93
2022-08-01T20:42:53.476Z,21.89
2022-08-01T20:45:22.189Z,21.83
2022-08-01T20:47:49.986Z,21.78
2022-08-01T20:50:53.334Z,21.75
2022-08-01T20:53:24.799Z,21.65
2022-08-01T20:56:06.857Z,21.60
2022-08-01T20:58:46.297Z,21.52
2022-08-01T21:01:20.591Z,21.47
2022-08-01T21:03:59.068Z,21.39
2022-08-01T21:06:33.760Z,21.32
2022-08-01T21:09:04.833Z,21.26
2022-08-01T21:11:40.045Z,21.18
2022-08-01T21:14:10.785Z,21.11
2022-08-01T21:16:43.256Z,21.05
2022-08-01T21:19:19.961Z,20.99
2022-08-01T21:22:19.371Z,20.94
2022-08-01T21:24:59.073Z,20.86
2022-08-01T21:27:32.834Z,20.79
2022-08-01T21:30:01.831Z,20.74
2022-08-01T21:32:29.881Z,20.73
2022-08-01T21:34:57.000Z,20.71
2022-08-01T21:37:23.548Z,20.69
2022-08-01T21:39:50.116Z,20.66
2022-08-01T21:42:18.907Z,20.63
2022-08-01T21:44:47.049Z,20.61
2022-08-01T21:47:15.295Z,20.59
2022-08-01T21:49:42.339Z,20.55
2022-08-01T21:52:21.575Z,20.52
2022-08-01T21:55:21.808Z,20.45
2022-08-01T21:58:10.915Z,20.41
2022-08-01T22:00:40.320Z,20.35
2022-08-01T22:03:09.436Z,20.31
2022-08-01T22:05:42.554Z,20.26
2022-08-01T22:08:23.671Z,20.20
2022-08-01T22:10:57.963Z,20.15
2022-08-01T22:13:24.582Z,20.09
2022-08-01T22:15:52.800Z,20.04
2022-08-01T22:18:20.476Z,20.01
2022-08-01T22:20:47.907Z,19.98
2022-08-01T22:23:15.984Z,19.90
2022-08-01T22:25:42.771Z,19.86
2022-08-01T22:28:10.338Z,19.80
2022-08-01T22:30:43.062Z,19.75
2022-08-01T22:33:17.035Z,19.72
2022-08-01T22:35:55.516Z,19.68
2022-08-01T22:38:24.314Z,19.64
2022-08-01T22:40:53.648Z,19.62
2022-08-01T22:43:38.476Z,19.58
2022-08-01T22:46:17.106Z,19.52
2022-08-01T22:48:50.067Z,19.47
2022-08-01T22:51:34.233Z,19.44
2022-08-01T22:54:11.854Z,19.40
2022-08-01T22:56:46.646Z,19.39
2022-08-01T22:59:20.179Z,19.37
2022-08-01T23:01:51.310Z,19.32
2022-08-01T23:04:39.512Z,19.27
2022-08-01T23:07:06.996Z,19.21
2022-08-01T23:09:48.173Z,19.19
2022-08-01T23:12:22.749Z,19.15
2022-08-01T23:14:51.151Z,19.13
2022-08-01T23:17:26.807Z,19.12
2022-08-01T23:19:57.187Z,19.07
2022-08-01T23:22:25.461Z,19.05
2022-08-01T23:25:04.481Z,19.01
2022-08-01T23:27:51.659Z,18.94
2022-08-01T23:30:25.566Z,18.85
2022-08-01T23:32:52.014Z,18.81
2022-08-01T23:35:18.594Z,18.78
2022-08-01T23:37:45.075Z,18.76
2022-08-01T23:40:12.038Z,18.72
2022-08-01T23:42:38.592Z,18.68
2022-08-01T23:45:05.537Z,18.65
2022-08-01T23:47:31.963Z,18.62
2022-08-01T23:49:58.423Z,18.61
2022-08-01T23:52:24.943Z,18.59
2022-08-01T23:54:56.521Z,18.56
2022-08-01T23:57:23.591Z,18.56
2022-08-01T23:59:53.749Z,18.56
